Time;durP1;ratioP1;P1;durP2;ratioP2;P2;SDS_P1;SDS_P2;PMS_P1;PMS_P2;Temp;Humidity;BMP_temperature;BMP_pressure;BME280_temperature;BME280_humidity;BME280_pressure;Samples;Min_cycle;Max_cycle;Signal;HPM_P1;HPM_P2
2023/08/29 00:00:23;;;;;;;4.80;4.10;;;;;;;15.88;84.00;101169.94;5096270;28;20066;-59
2023/08/29 00:02:48;;;;;;;5.13;4.30;;;;;;;15.86;83.99;101161.97;5096248;28;20039;-60
2023/08/29 00:05:14;;;;;;;6.10;3.78;;;;;;;15.85;83.59;101167.31;5096174;28;20067;-60
2023/08/29 00:07:41;;;;;;;5.13;3.80;;;;;;;15.86;83.05;101158.41;5096204;28;20033;-59
2023/08/29 00:10:07;;;;;;;6.07;3.70;;;;;;;15.85;83.39;101165.53;5096027;28;20429;-60
2023/08/29 00:12:33;;;;;;;6.50;4.20;;;;;;;15.83;83.46;101159.31;5096072;28;20028;-61
2023/08/29 00:15:05;;;;;;;5.90;3.95;;;;;;;15.75;83.40;101150.47;5096184;28;20077;-61
2023/08/29 00:17:30;;;;;;;;;;;;;;;15.88;82.42;101149.50;5096079;28;20056;-59
2023/08/29 00:19:56;;;;;;;5.38;4.10;;;;;;;15.68;83.10;101146.09;5096066;28;19958;-59
2023/08/29 00:22:21;;;;;;;5.85;3.60;;;;;;;15.71;83.21;101143.38;5095989;28;20057;-60
2023/08/29 00:24:48;;;;;;;6.15;3.20;;;;;;;15.68;82.81;101154.97;5095395;28;20158;-58
2023/08/29 00:27:14;;;;;;;4.30;3.65;;;;;;;15.64;82.88;101141.63;5096045;28;20024;-60
2023/08/29 00:29:41;;;;;;;5.95;3.65;;;;;;;15.55;83.52;101149.66;5095644;28;20443;-59
2023/08/29 00:32:07;;;;;;;4.97;3.58;;;;;;;15.52;83.51;101140.78;5095606;28;20402;-59
2023/08/29 00:34:32;;;;;;;4.85;3.70;;;;;;;15.55;83.65;101141.69;5095950;28;20488;-60
2023/08/29 00:36:57;;;;;;;5.60;3.80;;;;;;;15.51;83.82;101141.69;5095560;28;20028;-58
2023/08/29 00:39:24;;;;;;;6.88;4.00;;;;;;;15.51;83.67;101138.13;5095533;28;20036;-61
2023/08/29 00:41:51;;;;;;;7.10;4.40;;;;;;;15.49;85.12;101142.56;5095669;28;20042;-60
2023/08/29 00:44:16;;;;;;;6.18;4.50;;;;;;;15.49;84.99;101137.25;5095647;28;20101;-60
2023/08/29 00:46:44;;;;;;;6.13;4.40;;;;;;;15.50;85.00;101133.69;5095380;28;20036;-59
2023/08/29 00:49:11;;;;;;;6.28;4.30;;;;;;;15.53;84.50;101131.00;5095584;28;20051;-59
2023/08/29 00:51:38;;;;;;;6.70;4.40;;;;;;;15.46;84.42;101131.94;5095315;28;20115;-60
2023/08/29 00:54:04;;;;;;;5.72;4.32;;;;;;;15.42;85.01;101130.19;5095262;28;20035;-61
2023/08/29 00:56:29;;;;;;;7.00;4.60;;;;;;;15.35;85.95;101133.78;5095192;28;20486;-60
2023/08/29 00:58:55;;;;;;;5.80;4.50;;;;;;;15.32;86.13;101136.44;5077007;28;20028;-60
2023/08/29 01:01:21;;;;;;;6.78;4.50;;;;;;;15.31;85.73;101142.66;5077122;28;20032;-59
2023/08/29 01:03:47;;;;;;;6.97;4.40;;;;;;;15.26;86.30;101132.91;5095039;28;20020;-59
2023/08/29 01:06:13;;;;;;;5.20;4.30;;;;;;;15.26;85.41;101137.34;5094910;28;20028;-60
2023/08/29 01:08:40;;;;;;;6.25;4.70;;;;;;;15.24;86.61;101133.78;5094942;28;20035;-58
2023/08/29 01:11:20;;;;;;;5.07;4.53;;;;;;;15.27;85.61;101126.69;5094829;28;20081;-61
2023/08/29 01:14:03;;;;;;;6.38;4.20;;;;;;;15.30;85.28;101138.22;5094826;28;20095;-60
2023/08/29 01:16:36;;;;;;;5.60;4.35;;;;;;;15.25;87.21;101135.59;5094702;28;20043;-60
2023/08/29 01:19:06;;;;;;;8.30;4.32;;;;;;;15.26;86.40;101134.69;5094734;28;20028;-60
2023/08/29 01:22:02;;;;;;;5.13;4.35;;;;;;;15.33;86.38;101132.88;5094820;28;20031;-59
2023/08/29 01:24:44;;;;;;;7.70;4.97;;;;;;;15.30;86.65;101131.13;5094420;28;20044;-61
2023/08/29 01:27:10;;;;;;;6.40;4.90;;;;;;;15.23;87.15;101127.59;5094615;28;20043;-60
2023/08/29 01:29:36;;;;;;;7.40;4.53;;;;;;;15.16;86.38;101138.25;5094351;28;20039;-61
2023/08/29 01:32:03;;;;;;;5.80;4.45;;;;;;;15.13;86.37;101148.94;5094439;28;20028;-60
2023/08/29 01:34:29;;;;;;;5.93;4.38;;;;;;;15.01;86.19;101142.75;5094705;28;20024;-59
2023/08/29 01:36:54;;;;;;;6.60;4.80;;;;;;;15.03;86.75;101134.75;5093716;28;20028;-59
2023/08/29 01:39:20;;;;;;;5.25;4.57;;;;;;;15.02;86.79;101136.53;5094467;28;20081;-61
2023/08/29 01:41:45;;;;;;;7.28;4.57;;;;;;;14.99;85.87;101136.56;5094245;28;20048;-60
2023/08/29 01:44:10;;;;;;;7.07;4.82;;;;;;;14.99;86.07;101139.22;5094080;28;20028;-60
2023/08/29 01:46:37;;;;;;;6.65;4.53;;;;;;;15.11;86.70;101140.94;5093941;28;20096;-59
2023/08/29 01:49:03;;;;;;;7.35;4.97;;;;;;;15.11;86.62;101138.28;5094345;28;20057;-59
2023/08/29 01:51:29;;;;;;;8.95;4.97;;;;;;;15.11;86.08;101137.41;5094095;28;20036;-58
2023/08/29 01:53:55;;;;;;;6.18;4.55;;;;;;;15.03;86.16;101148.97;5094312;28;20021;-60
2023/08/29 01:56:22;;;;;;;7.88;4.60;;;;;;;14.95;86.26;101144.56;5094048;28;20016;-61
2023/08/29 01:58:50;;;;;;;6.63;4.88;;;;;;;14.94;86.50;101151.63;5093957;28;20482;-60
2023/08/29 02:01:15;;;;;;;5.40;4.55;;;;;;;14.93;86.22;101160.50;5093806;28;20031;-59
2023/08/29 02:03:41;;;;;;;7.13;4.95;;;;;;;14.91;85.97;101156.97;5093886;28;20028;-60
2023/08/29 02:06:06;;;;;;;7.20;5.20;;;;;;;14.86;86.89;101153.44;5094038;28;20020;-60
2023/08/29 02:08:32;;;;;;;5.82;4.70;;;;;;;14.83;86.79;101156.09;5094022;28;20024;-60
2023/08/29 02:10:57;;;;;;;7.43;4.68;;;;;;;14.81;87.29;101160.53;5093826;28;20076;-61
2023/08/29 02:13:23;;;;;;;8.90;4.65;;;;;;;14.77;86.92;101158.75;5093709;28;20024;-60
2023/08/29 02:15:49;;;;;;;7.97;4.60;;;;;;;14.76;86.07;101157.88;5093790;28;20043;-59
2023/08/29 02:18:14;;;;;;;10.02;4.68;;;;;;;14.74;86.32;101159.66;5093374;28;20075;-59
2023/08/29 02:20:40;;;;;;;7.43;4.60;;;;;;;14.74;86.17;101164.09;5075626;28;20020;-60
2023/08/29 02:23:05;;;;;;;5.32;4.43;;;;;;;14.71;85.94;101164.09;5093454;28;20024;-59
2023/08/29 02:25:31;;;;;;;5.72;4.47;;;;;;;14.66;86.31;101169.44;5093398;28;20052;-60
2023/08/29 02:27:57;;;;;;;6.65;4.45;;;;;;;14.70;85.89;101167.66;5093790;28;20107;-59
2023/08/29 02:30:22;;;;;;;5.28;4.65;;;;;;;14.75;86.89;101164.09;5093364;28;20470;-60
2023/08/29 02:32:48;;;;;;;7.22;4.20;;;;;;;14.75;86.48;101172.06;5093307;28;20032;-60
2023/08/29 02:35:13;;;;;;;7.80;4.65;;;;;;;14.84;87.50;101175.63;5093683;28;20115;-60
2023/08/29 02:37:40;;;;;;;5.28;4.30;;;;;;;14.85;86.36;101180.91;5093260;28;20070;-60
2023/08/29 02:40:08;;;;;;;4.85;3.85;;;;;;;14.81;85.40;101191.56;5093351;28;20029;-61
2023/08/29 02:42:33;;;;;;;6.25;4.20;;;;;;;14.70;86.23;101195.13;5093464;28;20036;-61
2023/08/29 02:44:59;;;;;;;6.38;4.28;;;;;;;14.58;86.47;101195.13;5093442;28;20031;-59
2023/08/29 02:47:24;;;;;;;6.55;4.10;;;;;;;14.55;87.17;101194.25;5092019;28;20500;-60
2023/08/29 02:49:50;;;;;;;5.78;4.20;;;;;;;14.53;86.75;101195.13;5093420;28;20036;-60
2023/08/29 02:52:15;;;;;;;5.95;4.18;;;;;;;14.59;86.60;101199.56;5093167;28;20477;-60
2023/08/29 02:54:40;;;;;;;4.65;3.92;;;;;;;14.62;86.41;101198.69;5093365;28;20024;-61
2023/08/29 02:57:06;;;;;;;5.00;3.53;;;;;;;14.60;85.85;101197.78;5093345;28;20118;-60
2023/08/29 02:59:31;;;;;;;5.40;3.80;;;;;;;14.59;85.87;101193.38;5075011;28;20125;-60
2023/08/29 03:01:57;;;;;;;5.15;3.80;;;;;;;14.60;85.97;101197.78;5093044;28;20485;-60
2023/08/29 03:04:23;;;;;;;7.07;3.75;;;;;;;14.66;85.75;101203.13;5093033;28;20028;-59
2023/08/29 03:06:51;;;;;;;5.95;4.72;;;;;;;14.69;87.14;101201.34;5093266;28;20039;-58
2023/08/29 03:09:16;;;;;;;6.03;4.28;;;;;;;14.73;85.97;101200.47;5092982;28;20113;-60
2023/08/29 03:11:41;;;;;;;5.55;4.30;;;;;;;14.70;85.20;101204.91;5093013;28;20081;-60
2023/08/29 03:14:07;;;;;;;4.97;4.22;;;;;;;14.66;84.81;101201.34;5092887;28;20035;-60
2023/08/29 03:16:32;;;;;;;5.60;4.30;;;;;;;14.60;84.66;101197.78;5092782;28;20036;-60
2023/08/29 03:18:57;;;;;;;6.57;4.20;;;;;;;14.55;84.99;101200.44;5092528;28;20028;-60
2023/08/29 03:21:23;;;;;;;4.95;3.40;;;;;;;14.56;86.88;101199.59;5093105;28;20063;-59
2023/08/29 03:23:49;;;;;;;4.32;3.65;;;;;;;14.59;86.38;101188.03;5092635;28;20097;-58
2023/08/29 03:26:14;;;;;;;7.75;3.90;;;;;;;14.53;85.34;101195.13;5092853;28;20133;-60
2023/08/29 03:28:39;;;;;;;4.45;3.70;;;;;;;14.50;85.20;101186.28;5074696;28;20032;-59
2023/08/29 03:31:09;;;;;;;4.57;4.00;;;;;;;14.41;85.94;101189.78;5092995;28;20028;-60
2023/08/29 03:33:34;;;;;;;4.75;3.60;;;;;;;14.34;86.40;101185.34;5093083;28;20040;-59
2023/08/29 03:35:59;;;;;;;6.63;4.00;;;;;;;14.22;86.75;101190.66;5092943;28;20485;-60
2023/08/29 03:38:25;;;;;;;5.88;3.60;;;;;;;14.04;87.06;101170.25;5092639;28;20035;-59
2023/08/29 03:40:59;;;;;;;4.88;3.65;;;;;;;13.94;87.80;101168.47;5092744;28;20031;-59
2023/08/29 03:43:28;;;;;;;4.50;3.45;;;;;;;13.81;88.00;101161.34;5093045;28;20036;-60
2023/08/29 03:45:58;;;;;;;6.30;3.78;;;;;;;13.74;88.16;101165.75;5092677;28;20028;-60
2023/08/29 03:48:23;;;;;;;4.75;3.80;;;;;;;13.68;87.90;101144.50;5092527;28;20040;-60
2023/08/29 03:50:49;;;;;;;12.15;4.70;;;;;;;13.64;88.64;101148.91;5092627;28;20481;-60
2023/08/29 03:53:15;;;;;;;4.55;4.00;;;;;;;13.64;89.03;101143.59;5074489;28;20057;-60
2023/08/29 03:55:40;;;;;;;6.13;4.03;;;;;;;13.69;88.65;101139.19;5074520;28;20111;-59
2023/08/29 03:58:06;;;;;;;5.18;3.80;;;;;;;13.74;88.66;101141.84;5092605;28;20400;-60
2023/08/29 04:00:32;;;;;;;5.45;3.85;;;;;;;13.72;88.10;101136.53;5096298;28;20043;-60
2023/08/29 04:02:59;;;;;;;6.10;3.75;;;;;;;13.72;87.89;101144.50;5096504;28;20020;-59
2023/08/29 04:05:25;;;;;;;4.90;3.97;;;;;;;13.75;88.13;101149.84;5096405;28;20131;-60
2023/08/29 04:07:50;;;;;;;5.93;4.10;;;;;;;13.76;88.59;101135.66;5096214;28;20453;-60
2023/08/29 04:10:16;;;;;;;7.13;3.85;;;;;;;13.84;87.69;101142.78;5078052;28;20468;-61
2023/08/29 04:12:42;;;;;;;5.10;4.18;;;;;;;13.81;87.16;101140.97;5095999;28;20031;-59
2023/08/29 04:15:08;;;;;;;5.20;3.65;;;;;;;13.80;87.65;101133.91;5096193;28;20066;-59
2023/08/29 04:17:33;;;;;;;6.60;4.30;;;;;;;13.78;88.30;101127.69;5095740;28;20056;-60
2023/08/29 04:20:00;;;;;;;6.60;4.70;;;;;;;13.75;88.43;101123.28;5095848;28;20113;-60
2023/08/29 04:22:25;;;;;;;6.85;4.70;;;;;;;13.74;89.21;101117.94;5096158;28;20389;-59
2023/08/29 04:24:51;;;;;;;6.00;4.93;;;;;;;13.69;88.95;101120.59;5077382;28;20569;-60
2023/08/29 04:27:16;;;;;;;7.10;5.55;;;;;;;13.68;89.47;101120.59;5095661;28;20048;-60
2023/08/29 04:29:43;;;;;;;8.45;5.50;;;;;;;13.65;89.81;101117.91;5095646;28;20130;-59
2023/08/29 04:32:08;;;;;;;8.50;5.25;;;;;;;13.67;90.31;101122.38;5095682;28;20059;-59
2023/08/29 04:34:33;;;;;;;8.35;4.95;;;;;;;13.72;90.18;101125.03;5095911;28;20048;-60
2023/08/29 04:36:59;;;;;;;9.50;5.10;;;;;;;13.70;89.99;101127.69;5095432;28;20477;-59
2023/08/29 04:39:24;;;;;;;16.40;5.45;;;;;;;13.67;90.27;101125.03;5095502;28;20042;-60
2023/08/29 04:41:50;;;;;;;11.35;5.55;;;;;;;13.65;90.70;101123.22;5095406;28;20035;-60
2023/08/29 04:44:15;;;;;;;7.63;5.13;;;;;;;13.61;90.59;101113.47;5095658;28;20023;-61
2023/08/29 04:46:41;;;;;;;12.43;5.65;;;;;;;13.68;91.16;101120.59;5095275;28;20028;-61
2023/08/29 04:49:06;;;;;;;8.52;5.22;;;;;;;13.75;91.13;101120.63;5095238;28;20060;-61
2023/08/29 04:51:34;;;;;;;7.18;5.30;;;;;;;13.71;90.75;101123.25;5095276;28;20036;-60
2023/08/29 04:54:00;;;;;;;10.38;5.78;;;;;;;13.68;91.18;101124.13;5095317;28;20119;-60
2023/08/29 04:56:25;;;;;;;9.00;5.38;;;;;;;13.63;91.54;101122.34;5094847;28;20166;-59
2023/08/29 04:58:50;;;;;;;17.95;5.93;;;;;;;13.59;91.75;101123.22;5094483;28;20028;-59
2023/08/29 05:01:16;;;;;;;10.48;6.13;;;;;;;13.58;91.83;101114.38;5094714;28;20078;-60
2023/08/29 05:03:41;;;;;;;7.88;6.22;;;;;;;13.62;91.72;101131.19;5094786;28;20035;-61
2023/08/29 05:06:07;;;;;;;8.05;6.50;;;;;;;13.65;91.45;101131.19;5094597;28;20519;-59
2023/08/29 05:08:34;;;;;;;9.05;6.10;;;;;;;13.71;91.50;101129.47;5094291;28;20036;-60
2023/08/29 05:11:01;;;;;;;8.82;6.07;;;;;;;13.79;91.29;101132.13;5093398;28;20039;-59
2023/08/29 05:13:26;;;;;;;9.10;6.30;;;;;;;13.83;91.15;101125.03;5094196;28;20098;-60
2023/08/29 05:15:52;;;;;;;9.95;6.47;;;;;;;13.93;90.82;101124.19;5094150;28;20044;-60
2023/08/29 05:18:17;;;;;;;11.77;6.05;;;;;;;13.96;90.71;101133.06;5093748;28;20062;-59
2023/08/29 05:20:43;;;;;;;7.20;5.85;;;;;;;13.96;90.41;101130.41;5094433;28;20020;-60
2023/08/29 05:23:08;;;;;;;8.68;6.40;;;;;;;13.92;90.73;101118.00;5094072;28;20433;-59
2023/08/29 05:25:34;;;;;;;9.52;6.55;;;;;;;13.91;90.76;101112.66;5093762;28;20044;-60
2023/08/29 05:27:59;;;;;;;10.35;6.45;;;;;;;13.92;91.15;101120.66;5075742;28;20059;-60
2023/08/29 05:30:25;;;;;;;9.05;6.38;;;;;;;13.97;91.01;101125.97;5094000;28;20405;-60
2023/08/29 05:32:50;;;;;;;8.48;6.53;;;;;;;13.99;91.22;101121.53;5093942;28;20024;-60
2023/08/29 05:35:15;;;;;;;10.73;6.28;;;;;;;14.08;91.35;101128.63;5094205;28;20410;-59
2023/08/29 05:37:41;;;;;;;7.97;6.43;;;;;;;14.11;91.13;101128.63;5093997;28;20024;-60
2023/08/29 05:40:08;;;;;;;8.55;6.57;;;;;;;14.16;91.15;101134.81;5093853;28;20032;-60
2023/08/29 05:42:34;;;;;;;8.07;6.53;;;;;;;14.23;91.21;101142.81;5093902;28;20038;-59
2023/08/29 05:44:59;;;;;;;10.07;6.32;;;;;;;14.26;91.06;101133.94;5093984;28;20103;-59
2023/08/29 05:47:25;;;;;;;8.50;6.65;;;;;;;14.27;91.38;101139.28;5093640;28;20025;-59
2023/08/29 05:49:50;;;;;;;8.27;6.68;;;;;;;14.27;92.27;101131.28;5093721;28;20032;-59
2023/08/29 05:52:16;;;;;;;7.50;6.05;;;;;;;14.37;91.73;101129.50;5093875;28;20110;-59
2023/08/29 05:54:42;;;;;;;14.00;6.75;;;;;;;14.45;91.15;101132.19;5093907;28;20488;-59
2023/08/29 05:57:07;;;;;;;8.43;6.57;;;;;;;14.55;91.17;101128.66;5093512;28;20035;-59
2023/08/29 05:59:33;;;;;;;8.68;6.18;;;;;;;14.61;90.82;101131.31;5093630;28;20028;-59
2023/08/29 06:01:58;;;;;;;8.60;6.20;;;;;;;14.65;90.87;101129.53;5093320;28;20107;-60
2023/08/29 06:04:24;;;;;;;7.18;5.88;;;;;;;14.70;90.72;101127.75;5093699;28;20485;-60
2023/08/29 06:06:50;;;;;;;8.85;6.22;;;;;;;14.76;90.80;101138.38;5093138;28;20093;-59
2023/08/29 06:09:16;;;;;;;9.40;7.93;;;;;;;14.76;91.86;101151.69;5093321;28;20020;-59
2023/08/29 06:11:42;;;;;;;11.35;8.35;;;;;;;14.82;92.75;101143.69;5075497;28;20032;-58
2023/08/29 06:14:07;;;;;;;10.52;8.52;;;;;;;14.83;92.44;101144.59;5093458;28;20089;-59
2023/08/29 06:16:32;;;;;;;10.57;8.77;;;;;;;14.88;92.67;101138.34;5092995;28;20443;-59
2023/08/29 06:18:58;;;;;;;10.15;8.57;;;;;;;14.88;93.30;101134.81;5092934;28;20111;-60
2023/08/29 06:21:23;;;;;;;10.32;8.80;;;;;;;15.00;93.64;101135.66;5092915;28;20060;-60
2023/08/29 06:23:49;;;;;;;10.57;9.00;;;;;;;15.02;93.33;101138.31;5093115;28;20024;-60
2023/08/29 06:26:15;;;;;;;10.80;8.75;;;;;;;15.02;93.48;101136.53;5093262;28;20056;-59
2023/08/29 06:28:42;;;;;;;10.00;8.90;;;;;;;15.10;94.45;101133.84;5093420;28;20039;-59
2023/08/29 06:31:08;;;;;;;13.70;9.50;;;;;;;15.08;93.78;101140.97;5092860;28;20024;-59
2023/08/29 06:33:37;;;;;;;11.07;9.40;;;;;;;15.13;93.96;101132.97;5092905;28;20028;-60
2023/08/29 06:36:02;;;;;;;11.18;9.80;;;;;;;15.24;94.46;101137.34;5092905;28;20028;-59
2023/08/29 06:38:29;;;;;;;12.38;9.43;;;;;;;15.35;94.19;101133.78;5092954;28;20350;-59
2023/08/29 06:40:56;;;;;;;12.63;9.43;;;;;;;15.49;94.58;101135.47;5092801;28;20028;-60
2023/08/29 06:43:22;;;;;;;12.43;9.50;;;;;;;15.62;94.08;101141.63;5092754;28;20028;-60
2023/08/29 06:45:48;;;;;;;13.40;10.88;;;;;;;15.66;93.58;101129.19;5092644;28;20063;-59
2023/08/29 06:48:13;;;;;;;13.55;10.82;;;;;;;15.73;93.64;101126.50;5092844;28;20058;-60
2023/08/29 06:50:39;;;;;;;10.85;9.60;;;;;;;15.85;93.24;101132.66;5092879;28;20465;-59
2023/08/29 06:53:04;;;;;;;14.52;11.30;;;;;;;15.98;92.79;101137.00;5092622;28;20466;-59
2023/08/29 06:55:34;;;;;;;13.52;9.90;;;;;;;16.09;92.81;101127.13;5092586;28;20035;-60
2023/08/29 06:58:00;;;;;;;11.50;10.00;;;;;;;16.21;92.82;101131.50;5092533;28;20036;-59
2023/08/29 07:00:26;;;;;;;11.07;9.18;;;;;;;16.32;92.45;101126.09;5092413;28;20035;-60
2023/08/29 07:02:51;;;;;;;11.45;8.90;;;;;;;16.49;91.78;101124.16;5092536;28;20035;-60
2023/08/29 07:05:17;;;;;;;10.40;9.10;;;;;;;16.62;91.56;101119.59;5092377;28;20110;-59
2023/08/29 07:07:43;;;;;;;11.23;8.73;;;;;;;16.75;91.53;101110.59;5092499;28;20039;-60
2023/08/29 07:10:09;;;;;;;12.32;8.38;;;;;;;16.85;90.84;101122.94;5092357;28;20039;-58
2023/08/29 07:12:34;;;;;;;11.00;7.60;;;;;;;16.92;91.34;101121.97;5092468;28;20033;-59
2023/08/29 07:15:03;;;;;;;9.07;7.65;;;;;;;16.97;90.68;101120.13;5092245;28;20099;-59
2023/08/29 07:17:28;;;;;;;8.75;7.53;;;;;;;17.08;90.68;101125.34;5092155;28;20439;-59
2023/08/29 07:19:54;;;;;;;9.77;6.90;;;;;;;17.05;90.03;101124.53;5092625;28;20055;-59
2023/08/29 07:22:19;;;;;;;9.55;7.05;;;;;;;17.15;90.06;101124.38;5092389;28;20048;-60
2023/08/29 07:24:45;;;;;;;9.20;6.90;;;;;;;17.11;90.21;101130.66;5092483;28;20028;-60
2023/08/29 07:27:11;;;;;;;7.72;6.70;;;;;;;17.15;90.14;101134.19;5092050;28;20048;-59
2023/08/29 07:29:36;;;;;;;8.32;6.68;;;;;;;17.19;89.84;101138.59;5092267;28;20028;-59
2023/08/29 07:32:02;;;;;;;6.97;5.85;;;;;;;17.32;88.63;101129.50;5092105;28;20055;-59
2023/08/29 07:34:27;;;;;;;8.68;6.85;;;;;;;17.45;89.08;101127.56;5094627;28;20032;-59
2023/08/29 07:36:52;;;;;;;11.27;6.80;;;;;;;17.64;88.06;101133.53;5096426;28;20028;-58
2023/08/29 07:39:19;;;;;;;10.00;8.07;;;;;;;17.80;88.37;101136.94;5096239;28;20481;-60
2023/08/29 07:41:47;;;;;;;11.02;8.85;;;;;;;17.95;87.20;101137.59;5096475;28;20031;-61
2023/08/29 07:44:13;;;;;;;14.07;10.23;;;;;;;18.05;87.11;101138.34;5096147;28;20032;-60
2023/08/29 07:46:38;;;;;;;10.77;9.50;;;;;;;18.18;87.38;101147.94;5096008;28;20024;-61
2023/08/29 07:49:10;;;;;;;9.85;8.57;;;;;;;18.24;85.98;101141.59;5095777;28;20035;-61
2023/08/29 07:51:36;;;;;;;10.82;8.95;;;;;;;18.30;85.88;101152.22;5095932;28;20067;-59
2023/08/29 07:54:01;;;;;;;9.05;8.10;;;;;;;18.32;86.98;101153.06;5095857;28;20027;-61
2023/08/29 07:56:27;;;;;;;9.95;7.45;;;;;;;18.41;85.50;101146.66;5078017;28;20466;-60
2023/08/29 07:58:52;;;;;;;8.43;7.03;;;;;;;18.52;85.52;101144.69;5095689;28;20058;-60
2023/08/29 08:01:17;;;;;;;9.05;6.80;;;;;;;18.53;85.75;101143.78;5095955;28;20031;-60
2023/08/29 08:03:43;;;;;;;8.63;6.57;;;;;;;18.63;84.99;101141.81;5077494;28;20530;-59
2023/08/29 08:06:08;;;;;;;10.75;6.45;;;;;;;18.75;83.67;101131.81;5060911;28;20548;-60
2023/08/29 08:08:34;;;;;;;10.10;5.90;;;;;;;18.84;82.34;101132.56;5095557;28;20044;-60
2023/08/29 08:10:59;;;;;;;8.85;6.13;;;;;;;18.71;81.23;101140.84;5095798;28;20149;-60
2023/08/29 08:13:25;;;;;;;9.88;5.63;;;;;;;18.80;81.10;101134.44;5095782;28;20051;-59
2023/08/29 08:15:51;;;;;;;7.03;5.90;;;;;;;18.84;81.96;101138.78;5095319;28;20381;-61
2023/08/29 08:18:16;;;;;;;9.00;6.70;;;;;;;18.93;81.05;101137.75;5077155;28;20024;-60
2023/08/29 08:20:42;;;;;;;8.20;6.35;;;;;;;19.04;80.94;101135.75;5095308;28;20043;-60
2023/08/29 08:23:07;;;;;;;8.48;6.28;;;;;;;19.04;80.76;101140.22;5095328;28;20050;-61
2023/08/29 08:25:33;;;;;;;7.93;5.75;;;;;;;19.10;79.83;101137.41;5076945;28;20032;-60
2023/08/29 08:27:59;;;;;;;13.05;6.88;;;;;;;19.09;80.68;101123.13;5094969;28;20120;-60
2023/08/29 08:30:24;;;;;;;9.32;6.65;;;;;;;19.27;80.33;101141.53;5095010;28;20040;-61
2023/08/29 08:32:49;;;;;;;9.52;6.95;;;;;;;19.22;80.75;101137.16;5095449;28;20028;-60
2023/08/29 08:35:15;;;;;;;10.07;6.45;;;;;;;19.33;79.89;101140.50;5095237;28;20028;-59
2023/08/29 08:37:40;;;;;;;7.78;5.90;;;;;;;19.43;78.41;101143.88;5076611;28;20389;-61
2023/08/29 08:40:09;;;;;;;8.00;5.45;;;;;;;19.50;76.28;101149.09;5094843;28;20025;-61
2023/08/29 08:42:44;;;;;;;7.13;5.32;;;;;;;19.67;78.16;101146.06;5094978;28;20382;-60
2023/08/29 08:45:10;;;;;;;7.45;5.78;;;;;;;19.56;76.73;101144.50;5094706;28;20366;-60
2023/08/29 08:47:36;;;;;;;7.70;5.50;;;;;;;19.63;76.09;101147.06;5094419;28;20028;-59
2023/08/29 08:50:03;;;;;;;22.48;9.02;;;;;;;19.75;76.52;101140.56;5094877;28;20032;-60
2023/08/29 08:52:33;;;;;;;9.77;5.40;;;;;;;19.96;75.09;101140.06;5094774;28;20016;-61
2023/08/29 08:54:58;;;;;;;6.85;4.60;;;;;;;20.06;73.45;101134.47;5095044;28;20051;-60
2023/08/29 08:57:25;;;;;;;8.77;4.47;;;;;;;20.21;72.33;101137.69;5094482;28;20477;-60
2023/08/29 08:59:50;;;;;;;6.25;4.40;;;;;;;20.49;73.21;101140.56;5094689;28;20028;-59
2023/08/29 09:02:17;;;;;;;7.13;4.88;;;;;;;20.78;71.55;101144.31;5094599;28;20031;-60
2023/08/29 09:04:43;;;;;;;8.98;4.78;;;;;;;20.87;70.50;101127.94;5094808;28;20032;-59
2023/08/29 09:07:09;;;;;;;6.10;4.28;;;;;;;21.21;70.03;101130.56;5098139;28;20028;-59
2023/08/29 09:09:34;;;;;;;7.05;4.30;;;;;;;21.40;68.45;101135.44;5094246;28;20501;-60
2023/08/29 09:11:59;;;;;;;6.75;4.75;;;;;;;21.67;68.30;101131.03;5094344;28;20032;-60
2023/08/29 09:14:26;;;;;;;5.20;3.70;;;;;;;21.58;66.32;101137.56;5076385;28;20028;-61
2023/08/29 09:16:56;;;;;;;5.00;3.58;;;;;;;21.59;65.51;101138.47;5094287;28;20020;-61
2023/08/29 09:19:23;;;;;;;6.25;3.70;;;;;;;21.58;65.13;101140.25;5075779;28;20129;-60
2023/08/29 09:21:49;;;;;;;6.78;3.40;;;;;;;21.67;65.68;101139.09;5094190;28;20055;-61
2023/08/29 09:24:22;;;;;;;5.45;3.80;;;;;;;21.95;66.43;101144.50;5094359;28;20036;-60
2023/08/29 09:26:48;;;;;;;4.95;3.33;;;;;;;22.18;65.00;101142.00;5093851;28;20055;-61
2023/08/29 09:29:20;;;;;;;6.10;2.97;;;;;;;22.10;63.50;101143.13;5093885;28;20024;-60
2023/08/29 09:31:47;;;;;;;5.55;3.33;;;;;;;22.02;63.27;101146.09;5093789;28;20488;-60
2023/08/29 09:34:42;;;;;;;4.70;3.38;;;;;;;22.20;64.82;101139.25;5093951;28;20028;-61
2023/08/29 09:37:11;;;;;;;4.80;3.25;;;;;;;22.42;63.37;101144.81;5072287;28;20032;-61
2023/08/29 09:39:37;;;;;;;5.22;3.30;;;;;;;22.56;61.95;101142.50;5093949;28;20028;-60
2023/08/29 09:42:04;;;;;;;5.00;3.00;;;;;;;22.63;60.59;101140.50;5093875;28;20028;-60
2023/08/29 09:44:33;;;;;;;5.32;2.88;;;;;;;22.53;60.15;101145.34;5075570;28;20027;-60
2023/08/29 09:46:59;;;;;;;4.95;2.90;;;;;;;22.32;60.44;101133.47;5093340;28;20480;-60
2023/08/29 09:49:31;;;;;;;6.53;3.42;;;;;;;22.15;61.13;101136.72;5093520;28;20043;-61
2023/08/29 09:52:01;;;;;;;4.47;3.10;;;;;;;22.18;61.40;101130.31;5093388;28;20036;-60
2023/08/29 09:54:29;;;;;;;8.32;3.28;;;;;;;22.19;62.16;101129.44;5093494;28;20174;-61
2023/08/29 09:57:01;;;;;;;5.57;3.55;;;;;;;22.09;61.89;101120.72;5092870;28;20028;-60
2023/08/29 09:59:28;;;;;;;;;;;;;;;22.29;64.32;101119.22;5093709;28;20077;-60
2023/08/29 10:01:54;;;;;;;6.15;3.20;;;;;;;22.30;62.69;101119.16;5093075;28;19912;-60
2023/08/29 10:04:21;;;;;;;5.07;2.72;;;;;;;22.36;60.50;101121.66;5093295;28;20024;-60
2023/08/29 10:06:49;;;;;;;3.00;2.20;;;;;;;22.33;60.00;101118.19;5093217;28;20114;-60
2023/08/29 10:09:15;;;;;;;5.75;2.60;;;;;;;22.30;60.61;101121.84;5093074;28;20492;-60
2023/08/29 10:11:42;;;;;;;5.72;3.03;;;;;;;22.25;61.19;101119.31;5093180;28;20335;-59
2023/08/29 10:14:09;;;;;;;3.92;3.03;;;;;;;22.07;62.15;101119.03;5074796;28;20027;-61
2023/08/29 10:16:35;;;;;;;7.57;3.45;;;;;;;22.12;62.42;101115.28;5092837;28;20024;-59
2023/08/29 10:19:01;;;;;;;6.50;3.00;;;;;;;22.14;62.98;101118.81;5092544;28;20032;-60
2023/08/29 10:21:28;;;;;;;9.02;4.90;;;;;;;21.94;62.25;101111.34;5093214;28;20094;-59
2023/08/29 10:23:54;;;;;;;7.25;3.85;;;;;;;21.98;63.12;101115.69;5074735;28;20492;-60
2023/08/29 10:26:21;;;;;;;6.47;4.10;;;;;;;21.89;63.39;101116.00;5106391;28;20362;-60
2023/08/29 10:28:48;;;;;;;7.22;4.63;;;;;;;21.75;63.92;101112.84;5112868;28;20036;-61
2023/08/29 10:31:15;;;;;;;5.95;3.80;;;;;;;21.64;64.32;101112.31;5113221;28;20092;-60
2023/08/29 10:33:40;;;;;;;6.47;3.70;;;;;;;21.69;64.47;101108.53;5112969;28;20034;-60
2023/08/29 10:36:08;;;;;;;5.10;3.85;;;;;;;21.77;62.38;101102.94;5094991;28;20023;-60
2023/08/29 10:38:46;;;;;;;5.55;3.58;;;;;;;21.78;62.25;101098.41;5112637;28;20028;-60
2023/08/29 10:41:12;;;;;;;6.07;3.50;;;;;;;21.68;63.00;101098.72;5113104;28;20102;-59
2023/08/29 10:43:37;;;;;;;5.55;3.67;;;;;;;21.70;63.06;101107.59;5112914;28;20015;-60
2023/08/29 10:46:14;;;;;;;7.80;3.83;;;;;;;21.73;63.82;101102.13;5112982;28;20024;-60
2023/08/29 10:48:39;;;;;;;6.38;2.97;;;;;;;21.76;62.43;101103.88;5112878;28;20358;-61
2023/08/29 10:51:08;;;;;;;5.05;3.10;;;;;;;21.76;62.54;101101.16;5112747;28;20098;-60
2023/08/29 10:53:43;;;;;;;8.48;3.42;;;;;;;21.92;62.19;101098.84;5112818;28;20407;-60
2023/08/29 10:56:09;;;;;;;6.32;3.30;;;;;;;22.00;62.50;101103.06;5112964;28;20031;-59
2023/08/29 10:58:39;;;;;;;9.10;3.17;;;;;;;21.94;62.07;101097.88;5111199;28;20127;-60
2023/08/29 11:01:07;;;;;;;5.95;3.30;;;;;;;22.17;61.43;101091.78;5112702;28;20046;-59
2023/08/29 11:04:11;;;;;;;5.57;3.20;;;;;;;22.28;62.04;101087.84;5112740;28;20049;-60
2023/08/29 11:06:55;;;;;;;5.70;2.92;;;;;;;22.03;61.99;101082.38;5112535;28;20381;-60
2023/08/29 11:09:22;;;;;;;5.85;2.90;;;;;;;21.78;61.24;101082.28;5115206;28;20114;-60
2023/08/29 11:12:12;;;;;;;5.38;2.80;;;;;;;21.60;61.90;101078.38;5108183;28;20028;-60
2023/08/29 11:14:51;;;;;;;5.03;2.60;;;;;;;21.74;61.32;101074.31;5096405;28;20492;-59
2023/08/29 11:17:23;;;;;;;4.10;2.40;;;;;;;22.00;60.21;101076.16;5096185;28;20028;-60
2023/08/29 11:19:56;;;;;;;4.57;2.28;;;;;;;22.23;60.35;101080.81;5096670;28;20034;-60
2023/08/29 11:22:25;;;;;;;5.43;2.63;;;;;;;22.44;58.56;101075.59;5096432;28;20081;-60